Аэропорт
Тюбу Сэнторэа (RJGG)

 RJGG / NGO

Japan
JP-23
Токонамэ
 34.85840, 136.80499  / 15 ft

 RJGG 201630Z 31014KT 9999 FEW030 09/02 Q1032 NOSIG
 TAF RJGG 201105Z 2012/2118 34014KT 9999 FEW030 BECMG 2103/2106 14008KT BECMG 2112/2115 04005KT

2020 © VATRUS division (Privacy Policy)